Saltar para o conteúdo principal

Viana do Castelo

ID 1240610 · 41.6950, -8.8292 mapa

Última leitura · 2026-05-09 19:00 (Europe/Lisbon)

Temperatura
17.1 °C
Humidade
72 %
Pressão
Precipitação
0.0 mm
Radiação
Velocidade do vento
Direcção do vento
Sem vento

Histórico de 24 horas

Hora (Europe/Lisbon) Temperatura Humidade Pressão Chuva Vento Direcção
2026-05-09 19:00 17.1 °C 72 % 0.0 mm
2026-05-09 18:00 17.7 °C 60 % 0.1 mm
2026-05-09 17:00 17.9 °C 56 % 0.0 mm
2026-05-09 16:00 16.2 °C 72 % 0.0 mm
2026-05-09 15:00 16.8 °C 67 % 0.1 mm
2026-05-09 14:00 16.4 °C 74 % 0.0 mm
2026-05-09 13:00 14.7 °C 89 % 0.3 mm
2026-05-09 12:00 13.8 °C 88 % 1.5 mm
2026-05-09 11:00 14.6 °C 78 % 3.5 mm
2026-05-09 10:00 15.5 °C 67 % 0.5 mm
2026-05-09 09:00 16.1 °C 57 % 0.0 mm
2026-05-09 08:00 14.4 °C 68 % 0.0 mm
2026-05-09 07:00 14.2 °C 65 % 0.0 mm
2026-05-09 06:00 14.6 °C 62 % 0.0 mm
2026-05-09 05:00 15.2 °C 60 % 0.0 mm
2026-05-09 04:00 14.3 °C 79 % 0.0 mm
2026-05-09 03:00 14.3 °C 84 % 0.4 mm
2026-05-09 02:00 15.0 °C 67 % 0.3 mm
2026-05-09 01:00 15.6 °C 53 % 0.0 mm
2026-05-09 00:00 15.9 °C 51 % 0.0 mm
2026-05-08 23:00 16.0 °C 48 % 0.0 mm
2026-05-08 22:00 15.8 °C 47 % 0.0 mm
2026-05-08 21:00 16.5 °C 41 % 0.0 mm
2026-05-08 20:00 17.8 °C 34 % 0.0 mm